This is the latest recevied weather packets stored in our database for station/object HB9ZRH-10. If no packets are shown the sender has not sent any weather packets the latest 1 day(s).
| Time | Temp. | Humidity | Pressure | Rain* | Wind** | Luminosity | Snow |
|---|---|---|---|---|---|---|---|
| 1778095436 | 20° C | 46% | 1010.1 hPa | - | - | - | - |
| 1778095136 | 20.56° C | 45% | 1010 hPa | - | - | - | - |
| 1778094836 | 20.56° C | 45% | 1009.9 hPa | - | - | - | - |
| 1778094536 | 20° C | 46% | 1009.7 hPa | - | - | - | - |
| 1778094236 | 18.33° C | 48% | 1009.7 hPa | - | - | - | - |
| 1778093936 | 17.78° C | 48% | 1009.6 hPa | - | - | - | - |
| 1778093636 | 18.33° C | 47% | 1009.7 hPa | - | - | - | - |
| 1778093336 | 19.44° C | 46% | 1009.7 hPa | - | - | - | - |
| 1778093036 | 18.33° C | 47% | 1009.6 hPa | - | - | - | - |
| 1778092736 | 20.56° C | 46% | 1009.5 hPa | - | - | - | - |
| 1778092436 | 20° C | 46% | 1009.4 hPa | - | - | - | - |
| 1778092136 | 19.44° C | 46% | 1009.4 hPa | - | - | - | - |
| 1778091536 | 22.78° C | 44% | 1009.4 hPa | - | - | - | - |
| 1778091236 | 21.67° C | 45% | 1009.4 hPa | - | - | - | - |
| 1778090936 | 20.56° C | 46% | 1009.4 hPa | - | - | - | - |
| 1778090636 | 21.11° C | 45% | 1009.3 hPa | - | - | - | - |
| 1778090336 | 21.11° C | 45% | 1009.2 hPa | - | - | - | - |
| 1778089736 | 19.44° C | 48% | 1009.1 hPa | - | - | - | - |
| 1778089436 | 19.44° C | 47% | 1009 hPa | - | - | - | - |
| 1778089136 | 18.33° C | 47% | 1008.9 hPa | - | - | - | - |
| 1778088536 | 21.67° C | 45% | 1008.7 hPa | - | - | - | - |
| 1778087936 | 18.33° C | 47% | 1008.8 hPa | - | - | - | - |
| 1778087636 | 20.56° C | 46% | 1008.7 hPa | - | - | - | - |
| 1778087336 | 21.11° C | 46% | 1008.5 hPa | - | - | - | - |
| 1778087036 | 20.56° C | 46% | 1008.7 hPa | - | - | - | - |
* Rain since midnight (hover to see other rain measurements)
** Current wind speed in m/s (hover to see current wind gust speed)